Impacts METAR Board INFO
IDs:

KMCO - Orlando Intl, FL, US

Updated at: 1951 UTC 12 Dec 2017
Potential Impact None Slight Moderate High
Time12/07Z 12/08Z 12/09Z 12/10Z 12/11Z 12/12Z 12/13Z 12/14Z 12/15Z 12/16Z 12/17Z 12/18Z 12/19Z
VIS10 10 10 10 10 10 10 10 10 10 10 10
CIG-- -- -- -- -- -- -- -- -- -- 300 --
CoverFEWCLRCLRCLRFEWFEWFEWFEWFEWSCTBKNSCT
FltCatVFRVFRVFRVFRVFRVFRVFRVFRVFRVFRVFRVFR
WX------------------------
WDir230210210220210220210220250270280250
WSpd8 8 8 7 6 8 10 8 14 16 20 17
WGst-- -- -- -- -- -- -- -- -- 22 29 24
Raw hourly METARs
KMCO 120653Z 23008KT 10SM FEW250 07/05 A3011
KMCO 120753Z 21008KT 10SM CLR 06/05 A3010
KMCO 120853Z 21008KT 10SM CLR 06/06 A3009

KMCO 121053Z 22007KT 10SM CLR 07/07 A3008
KMCO 121153Z 21006KT 10SM FEW300 08/06 A3007
KMCO 121253Z 22008KT 10SM FEW300 10/06 A3007
KMCO 121353Z 21010KT 10SM FEW300 12/08 A3007
KMCO 121453Z 22008KT 10SM FEW020 FEW300 16/10 A3006
KMCO 121553Z COR 25014KT 10SM FEW026 FEW100 FEW300 19/12 A3003 RMK AO2 SLP167 T01940117
KMCO 121653Z 27016G22KT 10SM SCT033 SCT300 21/11 A2998 RMK AO2 SLP151 T02110111
KMCO 121753Z 28020G29KT 10SM SCT044 SCT180 BKN300 23/11 A2994 RMK AO2 PK WND 25029/1751 SLP137 T02280106 10228 20067 58038
KMCO 121853Z 25017G24KT 10SM SCT050 SCT300 23/09 A2992 RMK AO2 SLP129 T02280089